This is the latest recevied weather packets stored in our database for station/object KA7EII-13. If no packets are shown the sender has not sent any weather packets the latest 10 day(s).
| Time | Temp. | Humidity | Pressure | Rain* | Wind** | Luminosity | Snow |
|---|---|---|---|---|---|---|---|
| 1777258329 | 6.11° C | 79% | 1095.4 hPa | 0 mm | - | 0 W/m² | - |
| 1777258026 | 6.11° C | 78% | 1095.5 hPa | 0 mm | - | 0 W/m² | - |
| 1777257723 | 6.67° C | 78% | 1095.4 hPa | 0 mm | - | 0 W/m² | - |
| 1777257421 | 6.67° C | 77% | 1095.2 hPa | 0 mm | - | 0 W/m² | - |
| 1777257117 | 6.67° C | 76% | 1095.3 hPa | 0 mm | - | 0 W/m² | - |
| 1777256814 | 7.22° C | 75% | 1095.2 hPa | 0 mm | - | 1 W/m² | - |
| 1777256511 | 7.22° C | 74% | 1095 hPa | 0 mm | - | 1 W/m² | - |
| 1777256206 | 7.78° C | 73% | 1094.9 hPa | 0 mm | - | 5 W/m² | - |
| 1777255903 | 7.78° C | 71% | 1094.5 hPa | 0 mm | - | 7 W/m² | - |
| 1777255599 | 8.89° C | 68% | 1094.5 hPa | 0 mm | - | 14 W/m² | - |
| 1777255295 | 10° C | 55% | 1094.4 hPa | 0 mm | - | 19 W/m² | - |
| 1777254991 | 10° C | 53% | 1094.3 hPa | 0 mm | - | 22 W/m² | - |
| 1777254688 | 10.56° C | 52% | 1094.4 hPa | 0 mm | - | 29 W/m² | - |
| 1777254385 | 10.56° C | 52% | 1094.2 hPa | 0 mm | - | 38 W/m² | - |
| 1777254080 | 10.56° C | 51% | 1094.3 hPa | 0 mm | - | 47 W/m² | - |
| 1777253778 | 10.56° C | 50% | 1094.3 hPa | 0 mm | - | 59 W/m² | - |
| 1777253475 | 10.56° C | 52% | 1094.3 hPa | 0 mm | - | 62 W/m² | - |
| 1777253172 | 10.56° C | 50% | 1093.9 hPa | 0 mm | - | 57 W/m² | - |
| 1777252870 | 10.56° C | 50% | 1094.1 hPa | 0 mm | - | 57 W/m² | - |
| 1777252567 | 11.11° C | 50% | 1093.9 hPa | 0 mm | - | 66 W/m² | - |
| 1777252264 | 11.11° C | 49% | 1094.2 hPa | 0 mm | - | 81 W/m² | - |
| 1777251962 | 10.56° C | 51% | 1094.4 hPa | 0 mm | - | 94 W/m² | - |
| 1777251658 | 10.56° C | 50% | 1093.9 hPa | 0 mm | - | 81 W/m² | - |
| 1777251354 | 10.56° C | 52% | 1093.8 hPa | 0 mm | - | 82 W/m² | - |
| 1777251050 | 11.11° C | 51% | 1094.2 hPa | 0 mm | - | 95 W/m² | - |
* Rain latest hour (hover to see other rain measurements)
** Current wind speed in m/s (hover to see current wind gust speed)